アディスアベバ の空港の天気 - METARとTAF

ボレ国際空港(アディスアベバ) ( HAAB / ADD ) - エチオピア アディスアベバ
飛行場実況気象(Metar)
観測時間01/23 07:00 EAT (01/23 04:00 UTC)
風向・風速北 1m/s
視程10km以上
天気現象
少しの雲 雲底高度 760m
気温11℃
湿度67%
気圧1025hPa
METARHAAB 230400Z 35002KT 9999 FEW025 11/05 Q1025
過去の天気等 Google飛行場航空写真 Wunderground天気予報

過去48時間のMETAR

飛行場予報(TAF)
発表時間: 1/23 00:30 EAT (1/22 21:30 UTC)
予報対象時間: 23日3時 EAT ~ 24日9時 EAT
風向・風速東南東 4m/s
視程10km以上
全天の4割程度の雲 雲底高度 1,220m
23日3時 EAT ~ 23日7時 EAT に徐々に
風向・風速北 2m/s
視程9,000m
天気現象弱い煙霧
23日19時 EAT ~ 24日1時 EAT に徐々に
風向・風速東 5m/s
少しの雲 雲底高度 910m
TAF HAAB 222130Z 2300/2406 12007KT 9999 SCT040
BECMG 2300/2304 36004KT 9000 -HZ
BECMG 2316/2322 08009KT FEW030